Vergiate Airfield

LILG · Lombardy, 意大利

罗盘
风向 的 风向 的 风向 到 风向 020° Vergiate Airfield 16/34
风: 4 kt, 2 beaufort

3 kt

3 kt
改变
0 ft 2.000 4.000 6.000 8.000 10.000
Cloud Cloud
FEW 4.500
Cloud Cloud Cloud Cloud Cloud Cloud
BKN 6.000
METAR LIMC 290720Z 02004KT 340V080 9999 FEW045 BKN060 19/12 Q1016 NOSIG

METAR Vergiate Airfield - LILG

Vergiate Airfield是,意大利中的小机场。 该机场位于纬度45,71264和经度8,70082。 该机场有一条跑道: 16/34. 本场的ICAO机场代码为LILG。 机场在Milano FIR中。

该航空气象观测是针对Malpensa International Airport在2024年5月29日 09:20, 当地时间进行的。

机场观察

风向为020°,速度为4 kt。 风向在340°和080°之间变化。

可见度为10 km 或者更多。

有几云在4.500 ft的高度 和 碎云在6.000 ft的高度。 破损或更高的上限为6.000 ft。

温度和风寒是19 °C。 露点为12 °C,相对湿度为64%。 海平面上的气压为1016 hPa (QNH)。

白天

今天,太阳从05:40升起,在21:04降落。 这适用于Vergiate Airfield,世界夏令时可能有所不同。 当地时间与世界标准时间之间的时差为+2 小时。 夏令时目前正在进行中。

公司介绍

我们没有关于这个机场的公司信息。

体会

到Vliegles.nl去找飞行课程,跳伞和其他飞行体验。 浏览页面,了解Vergiate Airfield附近所有可用的活动。 你也可以使用搜索功能来寻找你所在地附近的特定飞行课程、跳伞或其他飞行体验。

跑道

Id 标题 侧风 逆风 侧风 %
16/34 158°-338° 3 kt 3 kt 67 %

逆风成分最大的方向会被突出显示,并用于横风计算。 这并不一定意味着这个方向在使用。

乌云

4.500 ft FEW 几云
6.000 ft BKN 碎云

温度 & 天气

温度 19 °C
露点 12 °C
相对湿度 64%
Kp-index 1 (0-9)

白天

日出
05:40
中午
13:22
日落
21:04 (11:22)

小工具

你想在你的网站上有一个关于Vergiate Airfield的当前航空天气(METAR)的小部件吗?

显示HTML代码
报告变更